sensor_id;sensor_type;location;lat;lon;timestamp;temperature;humidity
40534;DHT22;26233;51.894;10.192;2024-02-04T00:02:23;11.90;55.40
40534;DHT22;26233;51.894;10.192;2024-02-04T00:04:50;11.90;55.50
40534;DHT22;26233;51.894;10.192;2024-02-04T00:07:18;11.90;55.50
40534;DHT22;26233;51.894;10.192;2024-02-04T00:09:45;11.90;55.50
40534;DHT22;26233;51.894;10.192;2024-02-04T00:12:12;11.90;55.40
40534;DHT22;26233;51.894;10.192;2024-02-04T00:14:41;11.80;55.40
40534;DHT22;26233;51.894;10.192;2024-02-04T00:17:08;11.80;55.40
40534;DHT22;26233;51.894;10.192;2024-02-04T00:19:35;11.80;55.40
40534;DHT22;26233;51.894;10.192;2024-02-04T00:22:03;11.80;55.50
40534;DHT22;26233;51.894;10.192;2024-02-04T00:24:30;11.70;55.50
40534;DHT22;26233;51.894;10.192;2024-02-04T00:26:57;11.70;55.60
40534;DHT22;26233;51.894;10.192;2024-02-04T00:29:24;11.70;55.60
40534;DHT22;26233;51.894;10.192;2024-02-04T00:31:53;11.70;55.60
40534;DHT22;26233;51.894;10.192;2024-02-04T00:34:20;11.70;55.70
40534;DHT22;26233;51.894;10.192;2024-02-04T00:36:47;11.70;55.70
40534;DHT22;26233;51.894;10.192;2024-02-04T00:39:15;11.70;55.70
40534;DHT22;26233;51.894;10.192;2024-02-04T00:41:42;11.60;55.60
40534;DHT22;26233;51.894;10.192;2024-02-04T00:44:09;11.70;55.80
40534;DHT22;26233;51.894;10.192;2024-02-04T00:46:37;11.60;55.70
40534;DHT22;26233;51.894;10.192;2024-02-04T00:49:05;11.60;55.70
40534;DHT22;26233;51.894;10.192;2024-02-04T00:51:32;11.80;56.00
40534;DHT22;26233;51.894;10.192;2024-02-04T00:54:00;11.60;55.80
40534;DHT22;26233;51.894;10.192;2024-02-04T00:56:27;11.70;55.90
40534;DHT22;26233;51.894;10.192;2024-02-04T00:58:54;11.70;55.90
40534;DHT22;26233;51.894;10.192;2024-02-04T01:01:22;11.70;56.50
40534;DHT22;26233;51.894;10.192;2024-02-04T01:03:49;11.70;55.90
40534;DHT22;26233;51.894;10.192;2024-02-04T01:06:17;11.70;55.90
40534;DHT22;26233;51.894;10.192;2024-02-04T01:08:45;11.70;55.80
40534;DHT22;26233;51.894;10.192;2024-02-04T01:11:12;11.70;55.90
40534;DHT22;26233;51.894;10.192;2024-02-04T01:13:40;11.70;55.70
40534;DHT22;26233;51.894;10.192;2024-02-04T01:16:07;11.70;55.70
40534;DHT22;26233;51.894;10.192;2024-02-04T01:18:34;11.70;55.60
40534;DHT22;26233;51.894;10.192;2024-02-04T01:21:01;11.70;55.70
40534;DHT22;26233;51.894;10.192;2024-02-04T01:23:30;11.70;55.70
40534;DHT22;26233;51.894;10.192;2024-02-04T01:25:57;11.70;55.70
40534;DHT22;26233;51.894;10.192;2024-02-04T01:28:24;11.70;55.70
40534;DHT22;26233;51.894;10.192;2024-02-04T01:30:52;11.70;55.70
40534;DHT22;26233;51.894;10.192;2024-02-04T01:33:19;11.70;55.70
40534;DHT22;26233;51.894;10.192;2024-02-04T01:35:46;11.70;55.60
40534;DHT22;26233;51.894;10.192;2024-02-04T01:38:13;11.70;55.60
40534;DHT22;26233;51.894;10.192;2024-02-04T01:40:42;11.70;55.60
40534;DHT22;26233;51.894;10.192;2024-02-04T01:43:12;11.70;55.60
40534;DHT22;26233;51.894;10.192;2024-02-04T01:45:39;11.70;55.70
40534;DHT22;26233;51.894;10.192;2024-02-04T01:48:07;11.70;55.60
40534;DHT22;26233;51.894;10.192;2024-02-04T01:50:34;11.70;55.60
40534;DHT22;26233;51.894;10.192;2024-02-04T01:53:01;11.70;55.70
40534;DHT22;26233;51.894;10.192;2024-02-04T01:55:29;11.70;55.60
40534;DHT22;26233;51.894;10.192;2024-02-04T01:57:57;11.70;55.60
40534;DHT22;26233;51.894;10.192;2024-02-04T02:00:25;11.70;55.60
40534;DHT22;26233;51.894;10.192;2024-02-04T02:02:52;11.70;55.60
40534;DHT22;26233;51.894;10.192;2024-02-04T02:05:20;11.70;55.60
40534;DHT22;26233;51.894;10.192;2024-02-04T02:07:47;11.70;55.60
40534;DHT22;26233;51.894;10.192;2024-02-04T02:10:17;11.70;55.60
40534;DHT22;26233;51.894;10.192;2024-02-04T02:12:50;11.80;55.70
40534;DHT22;26233;51.894;10.192;2024-02-04T02:15:22;11.80;55.70
40534;DHT22;26233;51.894;10.192;2024-02-04T02:17:53;11.80;55.70
40534;DHT22;26233;51.894;10.192;2024-02-04T02:20:27;11.80;55.70
40534;DHT22;26233;51.894;10.192;2024-02-04T02:23:07;11.80;55.60
40534;DHT22;26233;51.894;10.192;2024-02-04T02:25:37;11.80;55.60
40534;DHT22;26233;51.894;10.192;2024-02-04T02:28:05;11.80;55.60
40534;DHT22;26233;51.894;10.192;2024-02-04T02:30:32;11.80;55.60
40534;DHT22;26233;51.894;10.192;2024-02-04T02:33:00;11.80;55.50
40534;DHT22;26233;51.894;10.192;2024-02-04T02:35:27;11.70;55.50
40534;DHT22;26233;51.894;10.192;2024-02-04T02:37:59;11.70;55.50
40534;DHT22;26233;51.894;10.192;2024-02-04T02:40:39;11.70;55.50
40534;DHT22;26233;51.894;10.192;2024-02-04T02:43:13;11.70;55.50
40534;DHT22;26233;51.894;10.192;2024-02-04T02:45:42;11.70;55.50
40534;DHT22;26233;51.894;10.192;2024-02-04T02:48:11;11.70;55.60
40534;DHT22;26233;51.894;10.192;2024-02-04T02:50:38;11.70;55.60
40534;DHT22;26233;51.894;10.192;2024-02-04T02:53:06;11.70;55.60
40534;DHT22;26233;51.894;10.192;2024-02-04T02:55:33;11.70;55.60
40534;DHT22;26233;51.894;10.192;2024-02-04T02:58:02;11.70;55.60
40534;DHT22;26233;51.894;10.192;2024-02-04T03:00:29;11.60;55.50
40534;DHT22;26233;51.894;10.192;2024-02-04T03:02:56;11.60;55.50
40534;DHT22;26233;51.894;10.192;2024-02-04T03:05:24;11.60;55.50
40534;DHT22;26233;51.894;10.192;2024-02-04T03:07:51;11.60;55.50
40534;DHT22;26233;51.894;10.192;2024-02-04T03:10:18;11.60;55.50
40534;DHT22;26233;51.894;10.192;2024-02-04T03:12:45;11.50;55.50
40534;DHT22;26233;51.894;10.192;2024-02-04T03:15:14;11.50;55.50
40534;DHT22;26233;51.894;10.192;2024-02-04T03:17:43;11.50;55.50
40534;DHT22;26233;51.894;10.192;2024-02-04T03:20:11;11.50;55.50
40534;DHT22;26233;51.894;10.192;2024-02-04T03:22:38;11.50;55.50
40534;DHT22;26233;51.894;10.192;2024-02-04T03:25:06;11.50;55.50
40534;DHT22;26233;51.894;10.192;2024-02-04T03:27:34;11.40;55.50
40534;DHT22;26233;51.894;10.192;2024-02-04T03:30:01;11.40;55.50
40534;DHT22;26233;51.894;10.192;2024-02-04T03:32:30;11.40;55.50
40534;DHT22;26233;51.894;10.192;2024-02-04T03:35:00;11.30;55.50
40534;DHT22;26233;51.894;10.192;2024-02-04T03:37:27;11.30;55.60
40534;DHT22;26233;51.894;10.192;2024-02-04T03:39:54;11.30;55.60
40534;DHT22;26233;51.894;10.192;2024-02-04T03:42:22;11.30;55.60
40534;DHT22;26233;51.894;10.192;2024-02-04T03:44:49;11.30;55.60
40534;DHT22;26233;51.894;10.192;2024-02-04T03:47:16;11.20;55.60
40534;DHT22;26233;51.894;10.192;2024-02-04T03:49:45;11.20;55.70
40534;DHT22;26233;51.894;10.192;2024-02-04T03:52:12;11.20;55.80
40534;DHT22;26233;51.894;10.192;2024-02-04T03:54:40;11.20;55.90
40534;DHT22;26233;51.894;10.192;2024-02-04T03:57:07;11.20;55.90
40534;DHT22;26233;51.894;10.192;2024-02-04T03:59:34;11.20;56.00
40534;DHT22;26233;51.894;10.192;2024-02-04T04:02:02;11.20;56.00
40534;DHT22;26233;51.894;10.192;2024-02-04T04:04:29;11.10;56.00
40534;DHT22;26233;51.894;10.192;2024-02-04T04:06:58;11.10;56.00
40534;DHT22;26233;51.894;10.192;2024-02-04T04:09:25;11.20;56.10
40534;DHT22;26233;51.894;10.192;2024-02-04T04:11:52;11.20;56.20
40534;DHT22;26233;51.894;10.192;2024-02-04T04:14:20;11.20;56.20
40534;DHT22;26233;51.894;10.192;2024-02-04T04:16:47;11.20;56.20
40534;DHT22;26233;51.894;10.192;2024-02-04T04:19:14;11.30;56.30
40534;DHT22;26233;51.894;10.192;2024-02-04T04:21:41;11.30;56.30
40534;DHT22;26233;51.894;10.192;2024-02-04T04:24:10;11.30;56.30
40534;DHT22;26233;51.894;10.192;2024-02-04T04:26:37;11.30;56.30
40534;DHT22;26233;51.894;10.192;2024-02-04T04:29:04;11.30;56.30
40534;DHT22;26233;51.894;10.192;2024-02-04T04:31:31;11.30;56.30
40534;DHT22;26233;51.894;10.192;2024-02-04T04:33:58;11.30;56.30
40534;DHT22;26233;51.894;10.192;2024-02-04T04:36:26;11.40;56.40
40534;DHT22;26233;51.894;10.192;2024-02-04T04:38:53;11.40;56.40
40534;DHT22;26233;51.894;10.192;2024-02-04T04:41:22;11.40;56.40
40534;DHT22;26233;51.894;10.192;2024-02-04T04:43:49;11.40;56.40
40534;DHT22;26233;51.894;10.192;2024-02-04T04:46:16;11.40;56.40
40534;DHT22;26233;51.894;10.192;2024-02-04T04:48:43;11.40;56.40
40534;DHT22;26233;51.894;10.192;2024-02-04T04:51:11;11.40;56.50
40534;DHT22;26233;51.894;10.192;2024-02-04T04:53:39;11.40;56.50
40534;DHT22;26233;51.894;10.192;2024-02-04T04:56:06;11.50;56.60
40534;DHT22;26233;51.894;10.192;2024-02-04T04:58:36;11.50;56.70
40534;DHT22;26233;51.894;10.192;2024-02-04T05:01:04;11.50;56.70
40534;DHT22;26233;51.894;10.192;2024-02-04T05:03:32;11.50;56.70
40534;DHT22;26233;51.894;10.192;2024-02-04T05:05:59;11.50;56.70
40534;DHT22;26233;51.894;10.192;2024-02-04T05:08:27;11.50;56.70
40534;DHT22;26233;51.894;10.192;2024-02-04T05:10:54;11.50;56.70
40534;DHT22;26233;51.894;10.192;2024-02-04T05:13:22;11.50;56.70
40534;DHT22;26233;51.894;10.192;2024-02-04T05:15:50;11.60;56.80
40534;DHT22;26233;51.894;10.192;2024-02-04T05:18:17;11.60;56.80
40534;DHT22;26233;51.894;10.192;2024-02-04T05:20:45;11.60;56.80
40534;DHT22;26233;51.894;10.192;2024-02-04T05:23:14;11.60;56.80
40534;DHT22;26233;51.894;10.192;2024-02-04T05:25:41;11.60;56.70
40534;DHT22;26233;51.894;10.192;2024-02-04T05:28:08;11.70;56.70
40534;DHT22;26233;51.894;10.192;2024-02-04T05:30:35;11.70;56.60
40534;DHT22;26233;51.894;10.192;2024-02-04T05:33:04;11.70;56.50
40534;DHT22;26233;51.894;10.192;2024-02-04T05:35:31;11.70;56.30
40534;DHT22;26233;51.894;10.192;2024-02-04T05:37:59;11.70;56.30
40534;DHT22;26233;51.894;10.192;2024-02-04T05:40:26;11.70;56.20
40534;DHT22;26233;51.894;10.192;2024-02-04T05:42:53;11.50;56.00
40534;DHT22;26233;51.894;10.192;2024-02-04T05:45:20;11.70;56.10
40534;DHT22;26233;51.894;10.192;2024-02-04T05:47:47;11.70;56.00
40534;DHT22;26233;51.894;10.192;2024-02-04T05:50:16;11.70;56.00
40534;DHT22;26233;51.894;10.192;2024-02-04T05:52:43;11.70;56.50
40534;DHT22;26233;51.894;10.192;2024-02-04T05:55:10;11.70;55.90
40534;DHT22;26233;51.894;10.192;2024-02-04T05:57:38;11.70;55.90
40534;DHT22;26233;51.894;10.192;2024-02-04T06:00:06;11.70;56.50
40534;DHT22;26233;51.894;10.192;2024-02-04T06:02:36;11.70;55.80
40534;DHT22;26233;51.894;10.192;2024-02-04T06:05:04;11.70;55.70
40534;DHT22;26233;51.894;10.192;2024-02-04T06:07:33;11.70;55.70
40534;DHT22;26233;51.894;10.192;2024-02-04T06:10:00;11.70;55.60
40534;DHT22;26233;51.894;10.192;2024-02-04T06:12:29;11.80;55.80
40534;DHT22;26233;51.894;10.192;2024-02-04T06:14:56;11.80;56.30
40534;DHT22;26233;51.894;10.192;2024-02-04T06:17:24;11.70;55.50
40534;DHT22;26233;51.894;10.192;2024-02-04T06:19:51;11.80;55.60
40534;DHT22;26233;51.894;10.192;2024-02-04T06:22:18;11.80;55.50
40534;DHT22;26233;51.894;10.192;2024-02-04T06:24:47;11.80;55.50
40534;DHT22;26233;51.894;10.192;2024-02-04T06:27:15;11.80;55.50
40534;DHT22;26233;51.894;10.192;2024-02-04T06:29:43;11.80;55.50
40534;DHT22;26233;51.894;10.192;2024-02-04T06:32:10;11.80;55.40
40534;DHT22;26233;51.894;10.192;2024-02-04T06:34:39;11.80;55.40
40534;DHT22;26233;51.894;10.192;2024-02-04T06:37:06;11.60;55.80
40534;DHT22;26233;51.894;10.192;2024-02-04T06:39:33;11.80;55.40
40534;DHT22;26233;51.894;10.192;2024-02-04T06:42:02;11.80;55.40
40534;DHT22;26233;51.894;10.192;2024-02-04T06:44:30;11.80;55.30
40534;DHT22;26233;51.894;10.192;2024-02-04T06:46:57;11.80;55.20
40534;DHT22;26233;51.894;10.192;2024-02-04T06:49:24;11.80;55.20
40534;DHT22;26233;51.894;10.192;2024-02-04T06:51:52;11.80;55.20
40534;DHT22;26233;51.894;10.192;2024-02-04T06:54:22;11.80;55.20
40534;DHT22;26233;51.894;10.192;2024-02-04T06:56:50;11.80;55.10
40534;DHT22;26233;51.894;10.192;2024-02-04T06:59:19;11.90;55.20
40534;DHT22;26233;51.894;10.192;2024-02-04T07:01:46;11.90;55.10
40534;DHT22;26233;51.894;10.192;2024-02-04T07:04:13;11.90;55.10
40534;DHT22;26233;51.894;10.192;2024-02-04T07:06:40;11.90;55.10
40534;DHT22;26233;51.894;10.192;2024-02-04T07:09:08;11.90;55.10
40534;DHT22;26233;51.894;10.192;2024-02-04T07:11:35;11.90;55.00
40534;DHT22;26233;51.894;10.192;2024-02-04T07:14:02;11.90;55.00
40534;DHT22;26233;51.894;10.192;2024-02-04T07:16:30;11.90;55.00
40534;DHT22;26233;51.894;10.192;2024-02-04T07:18:57;11.90;54.90
40534;DHT22;26233;51.894;10.192;2024-02-04T07:21:25;11.90;54.90
40534;DHT22;26233;51.894;10.192;2024-02-04T07:23:52;11.90;54.90
40534;DHT22;26233;51.894;10.192;2024-02-04T07:26:19;11.90;54.80
40534;DHT22;26233;51.894;10.192;2024-02-04T07:28:46;11.90;54.80
40534;DHT22;26233;51.894;10.192;2024-02-04T07:31:14;11.90;54.80
40534;DHT22;26233;51.894;10.192;2024-02-04T07:33:42;11.90;54.80
40534;DHT22;26233;51.894;10.192;2024-02-04T07:36:10;11.90;54.70
40534;DHT22;26233;51.894;10.192;2024-02-04T07:38:38;11.90;54.70
40534;DHT22;26233;51.894;10.192;2024-02-04T07:41:05;11.90;54.70
40534;DHT22;26233;51.894;10.192;2024-02-04T07:43:32;11.90;54.60
40534;DHT22;26233;51.894;10.192;2024-02-04T07:45:59;11.90;54.60
40534;DHT22;26233;51.894;10.192;2024-02-04T07:48:27;11.90;54.60
40534;DHT22;26233;51.894;10.192;2024-02-04T07:50:56;11.90;54.60
40534;DHT22;26233;51.894;10.192;2024-02-04T07:53:23;11.90;54.50
40534;DHT22;26233;51.894;10.192;2024-02-04T07:55:51;11.90;54.50
40534;DHT22;26233;51.894;10.192;2024-02-04T07:58:19;11.90;54.50
40534;DHT22;26233;51.894;10.192;2024-02-04T08:00:46;11.90;55.00
40534;DHT22;26233;51.894;10.192;2024-02-04T08:03:14;11.90;54.50
40534;DHT22;26233;51.894;10.192;2024-02-04T08:05:41;11.90;54.50
40534;DHT22;26233;51.894;10.192;2024-02-04T08:08:08;11.90;54.40
40534;DHT22;26233;51.894;10.192;2024-02-04T08:10:36;11.90;54.40
40534;DHT22;26233;51.894;10.192;2024-02-04T08:13:03;11.90;54.40
40534;DHT22;26233;51.894;10.192;2024-02-04T08:15:30;11.90;54.40
40534;DHT22;26233;51.894;10.192;2024-02-04T08:17:57;11.90;54.40
40534;DHT22;26233;51.894;10.192;2024-02-04T08:20:24;11.90;55.00
40534;DHT22;26233;51.894;10.192;2024-02-04T08:22:52;11.90;54.40
40534;DHT22;26233;51.894;10.192;2024-02-04T08:25:20;11.90;54.30
40534;DHT22;26233;51.894;10.192;2024-02-04T08:27:48;11.90;54.30
40534;DHT22;26233;51.894;10.192;2024-02-04T08:30:15;11.90;54.30
40534;DHT22;26233;51.894;10.192;2024-02-04T08:32:45;11.90;54.40
40534;DHT22;26233;51.894;10.192;2024-02-04T08:35:12;11.90;54.30
40534;DHT22;26233;51.894;10.192;2024-02-04T08:37:39;11.90;54.30
40534;DHT22;26233;51.894;10.192;2024-02-04T08:40:07;11.90;54.30
40534;DHT22;26233;51.894;10.192;2024-02-04T08:42:37;11.90;54.30
40534;DHT22;26233;51.894;10.192;2024-02-04T08:45:05;11.90;54.20
40534;DHT22;26233;51.894;10.192;2024-02-04T08:47:33;11.90;54.30
40534;DHT22;26233;51.894;10.192;2024-02-04T08:50:00;11.90;54.40
40534;DHT22;26233;51.894;10.192;2024-02-04T08:52:27;11.90;54.30
40534;DHT22;26233;51.894;10.192;2024-02-04T08:54:55;11.90;54.20
40534;DHT22;26233;51.894;10.192;2024-02-04T08:57:22;11.90;54.30
40534;DHT22;26233;51.894;10.192;2024-02-04T08:59:51;11.90;54.40
40534;DHT22;26233;51.894;10.192;2024-02-04T09:02:18;11.90;54.40
40534;DHT22;26233;51.894;10.192;2024-02-04T09:04:46;11.90;54.40
40534;DHT22;26233;51.894;10.192;2024-02-04T09:07:13;11.90;54.40
40534;DHT22;26233;51.894;10.192;2024-02-04T09:09:40;11.80;54.40
40534;DHT22;26233;51.894;10.192;2024-02-04T09:12:09;11.80;54.50
40534;DHT22;26233;51.894;10.192;2024-02-04T09:14:36;11.80;54.60
40534;DHT22;26233;51.894;10.192;2024-02-04T09:17:05;11.80;54.70
40534;DHT22;26233;51.894;10.192;2024-02-04T09:19:33;11.70;54.60
40534;DHT22;26233;51.894;10.192;2024-02-04T09:22:00;11.70;54.60
40534;DHT22;26233;51.894;10.192;2024-02-04T09:24:28;11.70;54.60
40534;DHT22;26233;51.894;10.192;2024-02-04T09:26:56;11.70;54.60
40534;DHT22;26233;51.894;10.192;2024-02-04T09:29:23;11.60;54.60
40534;DHT22;26233;51.894;10.192;2024-02-04T09:31:51;11.60;54.70
40534;DHT22;26233;51.894;10.192;2024-02-04T09:34:21;11.60;54.70
40534;DHT22;26233;51.894;10.192;2024-02-04T09:36:48;11.60;54.80
40534;DHT22;26233;51.894;10.192;2024-02-04T09:39:15;11.50;54.70
40534;DHT22;26233;51.894;10.192;2024-02-04T09:41:43;11.50;54.70
40534;DHT22;26233;51.894;10.192;2024-02-04T09:44:11;11.50;54.70
40534;DHT22;26233;51.894;10.192;2024-02-04T09:46:39;11.50;54.70
40534;DHT22;26233;51.894;10.192;2024-02-04T09:49:07;11.50;54.70
40534;DHT22;26233;51.894;10.192;2024-02-04T09:51:37;11.50;54.70
40534;DHT22;26233;51.894;10.192;2024-02-04T09:54:04;11.50;54.70
40534;DHT22;26233;51.894;10.192;2024-02-04T09:56:33;11.50;54.80
40534;DHT22;26233;51.894;10.192;2024-02-04T09:59:01;11.50;54.70
40534;DHT22;26233;51.894;10.192;2024-02-04T10:01:29;11.50;54.60
40534;DHT22;26233;51.894;10.192;2024-02-04T10:03:56;11.50;54.60
40534;DHT22;26233;51.894;10.192;2024-02-04T10:06:24;11.50;54.60
40534;DHT22;26233;51.894;10.192;2024-02-04T10:08:53;11.60;54.60
40534;DHT22;26233;51.894;10.192;2024-02-04T10:11:20;11.60;54.50
40534;DHT22;26233;51.894;10.192;2024-02-04T10:13:48;11.60;54.50
40534;DHT22;26233;51.894;10.192;2024-02-04T10:16:16;11.60;54.40
40534;DHT22;26233;51.894;10.192;2024-02-04T10:18:44;11.60;54.40
40534;DHT22;26233;51.894;10.192;2024-02-04T10:21:16;11.60;54.30
40534;DHT22;26233;51.894;10.192;2024-02-04T10:23:44;11.60;54.20
40534;DHT22;26233;51.894;10.192;2024-02-04T10:26:12;11.60;54.00
40534;DHT22;26233;51.894;10.192;2024-02-04T10:28:40;11.60;53.90
40534;DHT22;26233;51.894;10.192;2024-02-04T10:31:08;11.60;54.00
40534;DHT22;26233;51.894;10.192;2024-02-04T10:33:37;11.60;53.80
40534;DHT22;26233;51.894;10.192;2024-02-04T10:36:04;11.60;53.80
40534;DHT22;26233;51.894;10.192;2024-02-04T10:38:32;11.70;53.90
40534;DHT22;26233;51.894;10.192;2024-02-04T10:41:01;11.70;53.80
40534;DHT22;26233;51.894;10.192;2024-02-04T10:43:32;11.70;53.70
40534;DHT22;26233;51.894;10.192;2024-02-04T10:46:04;11.70;53.60
40534;DHT22;26233;51.894;10.192;2024-02-04T10:48:36;11.70;53.60
40534;DHT22;26233;51.894;10.192;2024-02-04T10:51:12;11.70;53.60
40534;DHT22;26233;51.894;10.192;2024-02-04T10:53:42;11.70;53.60
40534;DHT22;26233;51.894;10.192;2024-02-04T10:56:14;11.70;53.40
40534;DHT22;26233;51.894;10.192;2024-02-04T10:58:48;11.70;52.90
40534;DHT22;26233;51.894;10.192;2024-02-04T11:01:16;11.70;53.20
40534;DHT22;26233;51.894;10.192;2024-02-04T11:03:45;11.70;53.20
40534;DHT22;26233;51.894;10.192;2024-02-04T11:06:13;11.70;53.70
40534;DHT22;26233;51.894;10.192;2024-02-04T11:08:41;11.70;53.20
40534;DHT22;26233;51.894;10.192;2024-02-04T11:11:08;11.70;53.10
40534;DHT22;26233;51.894;10.192;2024-02-04T11:13:36;11.70;53.00
40534;DHT22;26233;51.894;10.192;2024-02-04T11:16:08;11.70;52.90
40534;DHT22;26233;51.894;10.192;2024-02-04T11:19:08;11.70;52.80
40534;DHT22;26233;51.894;10.192;2024-02-04T11:25:12;11.70;52.60
40534;DHT22;26233;51.894;10.192;2024-02-04T11:28:00;11.60;52.30
40534;DHT22;26233;51.894;10.192;2024-02-04T11:30:32;11.60;52.80
40534;DHT22;26233;51.894;10.192;2024-02-04T11:33:01;11.70;52.60
40534;DHT22;26233;51.894;10.192;2024-02-04T11:35:30;11.60;52.70
40534;DHT22;26233;51.894;10.192;2024-02-04T11:37:58;11.60;52.70
40534;DHT22;26233;51.894;10.192;2024-02-04T11:40:30;11.60;52.70
40534;DHT22;26233;51.894;10.192;2024-02-04T11:43:06;11.60;52.60
40534;DHT22;26233;51.894;10.192;2024-02-04T11:45:37;11.60;52.50
40534;DHT22;26233;51.894;10.192;2024-02-04T11:48:09;11.60;52.50
40534;DHT22;26233;51.894;10.192;2024-02-04T11:50:37;11.60;52.60
40534;DHT22;26233;51.894;10.192;2024-02-04T11:53:09;11.60;52.60
40534;DHT22;26233;51.894;10.192;2024-02-04T11:55:39;11.60;52.60
40534;DHT22;26233;51.894;10.192;2024-02-04T11:58:07;11.60;52.70
40534;DHT22;26233;51.894;10.192;2024-02-04T12:00:36;11.60;52.70
40534;DHT22;26233;51.894;10.192;2024-02-04T12:03:04;11.60;52.70
40534;DHT22;26233;51.894;10.192;2024-02-04T12:05:34;11.60;52.70
40534;DHT22;26233;51.894;10.192;2024-02-04T12:08:03;11.60;52.70
40534;DHT22;26233;51.894;10.192;2024-02-04T12:10:32;11.50;52.50
40534;DHT22;26233;51.894;10.192;2024-02-04T12:13:02;11.50;52.50
40534;DHT22;26233;51.894;10.192;2024-02-04T12:15:30;11.60;52.70
40534;DHT22;26233;51.894;10.192;2024-02-04T12:18:05;11.60;52.60
40534;DHT22;26233;51.894;10.192;2024-02-04T12:20:34;11.60;52.40
40534;DHT22;26233;51.894;10.192;2024-02-04T12:23:02;11.60;53.10
40534;DHT22;26233;51.894;10.192;2024-02-04T12:25:30;11.60;52.50
40534;DHT22;26233;51.894;10.192;2024-02-04T12:27:58;11.60;52.30
40534;DHT22;26233;51.894;10.192;2024-02-04T12:30:26;11.60;52.40
40534;DHT22;26233;51.894;10.192;2024-02-04T12:32:57;11.60;52.30
40534;DHT22;26233;51.894;10.192;2024-02-04T12:35:24;11.60;52.10
40534;DHT22;26233;51.894;10.192;2024-02-04T12:37:53;11.60;52.20
40534;DHT22;26233;51.894;10.192;2024-02-04T12:40:22;11.60;52.30
40534;DHT22;26233;51.894;10.192;2024-02-04T12:42:54;11.60;52.20
40534;DHT22;26233;51.894;10.192;2024-02-04T12:45:22;11.60;52.20
40534;DHT22;26233;51.894;10.192;2024-02-04T12:47:50;11.70;52.40
40534;DHT22;26233;51.894;10.192;2024-02-04T12:50:18;11.70;52.30
40534;DHT22;26233;51.894;10.192;2024-02-04T12:52:45;11.70;52.20
40534;DHT22;26233;51.894;10.192;2024-02-04T12:55:22;11.70;52.30
40534;DHT22;26233;51.894;10.192;2024-02-04T12:58:00;11.70;52.00
40534;DHT22;26233;51.894;10.192;2024-02-04T13:00:29;11.70;52.20
40534;DHT22;26233;51.894;10.192;2024-02-04T13:02:57;11.70;52.10
40534;DHT22;26233;51.894;10.192;2024-02-04T13:05:24;11.70;52.10
40534;DHT22;26233;51.894;10.192;2024-02-04T13:07:54;11.70;52.10
40534;DHT22;26233;51.894;10.192;2024-02-04T13:10:24;11.70;52.00
40534;DHT22;26233;51.894;10.192;2024-02-04T13:13:01;11.80;52.20
40534;DHT22;26233;51.894;10.192;2024-02-04T13:15:32;11.80;52.00
40534;DHT22;26233;51.894;10.192;2024-02-04T13:18:00;11.80;52.10
40534;DHT22;26233;51.894;10.192;2024-02-04T13:20:27;11.80;52.10
40534;DHT22;26233;51.894;10.192;2024-02-04T13:22:54;11.80;52.20
40534;DHT22;26233;51.894;10.192;2024-02-04T13:25:24;11.80;52.10
40534;DHT22;26233;51.894;10.192;2024-02-04T13:27:51;11.80;52.10
40534;DHT22;26233;51.894;10.192;2024-02-04T13:30:19;11.80;52.10
40534;DHT22;26233;51.894;10.192;2024-02-04T13:32:46;11.80;52.10
40534;DHT22;26233;51.894;10.192;2024-02-04T13:35:14;11.70;52.00
40534;DHT22;26233;51.894;10.192;2024-02-04T13:37:43;11.70;52.00
40534;DHT22;26233;51.894;10.192;2024-02-04T13:40:14;11.70;52.00
40534;DHT22;26233;51.894;10.192;2024-02-04T13:42:43;11.70;52.10
40534;DHT22;26233;51.894;10.192;2024-02-04T13:45:11;11.70;52.20
40534;DHT22;26233;51.894;10.192;2024-02-04T13:47:39;11.70;52.20
40534;DHT22;26233;51.894;10.192;2024-02-04T13:50:07;11.70;52.20
40534;DHT22;26233;51.894;10.192;2024-02-04T13:52:35;11.70;52.30
40534;DHT22;26233;51.894;10.192;2024-02-04T13:55:03;11.80;52.40
40534;DHT22;26233;51.894;10.192;2024-02-04T13:57:32;11.80;52.40
40534;DHT22;26233;51.894;10.192;2024-02-04T14:00:01;11.80;52.50
40534;DHT22;26233;51.894;10.192;2024-02-04T14:02:30;11.80;52.40
40534;DHT22;26233;51.894;10.192;2024-02-04T14:04:57;11.80;52.50
40534;DHT22;26233;51.894;10.192;2024-02-04T14:07:26;11.80;52.40
40534;DHT22;26233;51.894;10.192;2024-02-04T14:09:53;11.80;52.50
40534;DHT22;26233;51.894;10.192;2024-02-04T14:12:21;11.80;52.40
40534;DHT22;26233;51.894;10.192;2024-02-04T14:14:48;11.90;52.50
40534;DHT22;26233;51.894;10.192;2024-02-04T14:17:16;11.80;52.40
40534;DHT22;26233;51.894;10.192;2024-02-04T14:19:44;11.80;52.50
40534;DHT22;26233;51.894;10.192;2024-02-04T14:22:15;11.90;52.60
40534;DHT22;26233;51.894;10.192;2024-02-04T14:24:43;11.80;52.50
40534;DHT22;26233;51.894;10.192;2024-02-04T14:27:11;11.80;52.60
40534;DHT22;26233;51.894;10.192;2024-02-04T14:29:38;11.90;52.60
40534;DHT22;26233;51.894;10.192;2024-02-04T14:32:06;11.90;52.60
40534;DHT22;26233;51.894;10.192;2024-02-04T14:34:36;11.80;52.60
40534;DHT22;26233;51.894;10.192;2024-02-04T14:37:03;11.90;52.70
40534;DHT22;26233;51.894;10.192;2024-02-04T14:39:31;11.90;52.70
40534;DHT22;26233;51.894;10.192;2024-02-04T14:41:58;11.90;52.70
40534;DHT22;26233;51.894;10.192;2024-02-04T14:44:26;11.90;52.70
40534;DHT22;26233;51.894;10.192;2024-02-04T14:46:54;11.90;52.80
40534;DHT22;26233;51.894;10.192;2024-02-04T14:49:21;11.90;52.80
40534;DHT22;26233;51.894;10.192;2024-02-04T14:51:49;11.90;52.80
40534;DHT22;26233;51.894;10.192;2024-02-04T14:54:17;11.90;52.80
40534;DHT22;26233;51.894;10.192;2024-02-04T14:56:44;11.90;52.80
40534;DHT22;26233;51.894;10.192;2024-02-04T14:59:13;11.80;52.80
40534;DHT22;26233;51.894;10.192;2024-02-04T15:01:44;11.90;52.90
40534;DHT22;26233;51.894;10.192;2024-02-04T15:04:11;11.80;52.90
40534;DHT22;26233;51.894;10.192;2024-02-04T15:06:39;11.80;53.00
40534;DHT22;26233;51.894;10.192;2024-02-04T15:09:07;11.80;53.00
40534;DHT22;26233;51.894;10.192;2024-02-04T15:11:36;11.80;53.10
40534;DHT22;26233;51.894;10.192;2024-02-04T15:14:04;11.90;53.10
40534;DHT22;26233;51.894;10.192;2024-02-04T15:16:32;11.90;53.20
40534;DHT22;26233;51.894;10.192;2024-02-04T15:19:01;11.80;53.10
40534;DHT22;26233;51.894;10.192;2024-02-04T15:21:29;11.80;53.10
40534;DHT22;26233;51.894;10.192;2024-02-04T15:23:57;11.80;53.10
40534;DHT22;26233;51.894;10.192;2024-02-04T15:26:31;11.80;53.10